createdAt,value
2023-01-09T00:00:47.947Z,4.90
2023-01-09T00:03:14.664Z,4.90
2023-01-09T00:05:41.371Z,4.90
2023-01-09T00:08:08.035Z,4.90
2023-01-09T00:10:34.781Z,4.90
2023-01-09T00:13:01.558Z,5.00
2023-01-09T00:15:28.255Z,4.90
2023-01-09T00:17:54.961Z,5.00
2023-01-09T00:20:21.610Z,5.00
2023-01-09T00:22:48.308Z,5.00
2023-01-09T00:25:14.938Z,5.00
2023-01-09T00:27:41.687Z,5.00
2023-01-09T00:30:09.759Z,5.00
2023-01-09T00:32:36.401Z,5.00
2023-01-09T00:35:03.316Z,5.10
2023-01-09T00:37:30.001Z,5.10
2023-01-09T00:39:56.595Z,5.10
2023-01-09T00:42:27.772Z,5.10
2023-01-09T00:44:59.532Z,5.10
2023-01-09T00:47:48.519Z,5.10
2023-01-09T00:50:19.811Z,5.10
2023-01-09T00:52:47.903Z,5.10
2023-01-09T00:55:15.390Z,5.10
2023-01-09T00:57:42.398Z,5.10
2023-01-09T01:00:10.051Z,5.20
2023-01-09T01:02:36.824Z,5.20
2023-01-09T01:05:21.944Z,5.20
2023-01-09T01:07:48.939Z,5.20
2023-01-09T01:10:22.145Z,5.30
2023-01-09T01:12:49.975Z,5.30
2023-01-09T01:15:18.065Z,5.30
2023-01-09T01:17:45.329Z,5.30
2023-01-09T01:20:15.559Z,5.30
2023-01-09T01:22:42.645Z,5.30
2023-01-09T01:25:11.571Z,5.30
2023-01-09T01:27:38.440Z,5.40
2023-01-09T01:30:06.070Z,5.40
2023-01-09T01:32:32.793Z,5.40
2023-01-09T01:34:59.538Z,5.40
2023-01-09T01:37:27.672Z,5.50
2023-01-09T01:39:54.779Z,5.40
2023-01-09T01:42:21.875Z,5.50
2023-01-09T01:45:12.747Z,5.40
2023-01-09T01:48:05.151Z,5.40
2023-01-09T01:50:43.915Z,5.40
2023-01-09T01:53:27.341Z,5.40
2023-01-09T01:56:10.599Z,5.40
2023-01-09T01:58:51.753Z,5.40
2023-01-09T02:01:19.434Z,5.40
2023-01-09T02:03:46.678Z,5.40
2023-01-09T02:06:14.016Z,5.40
2023-01-09T02:08:40.919Z,5.40
2023-01-09T02:11:07.666Z,5.40
2023-01-09T02:13:38.543Z,5.40
2023-01-09T02:16:35.703Z,5.40
2023-01-09T02:19:37.763Z,5.40
2023-01-09T02:22:28.375Z,5.40
2023-01-09T02:25:31.516Z,5.50
2023-01-09T02:28:04.443Z,5.50
2023-01-09T02:30:36.962Z,5.60
2023-01-09T02:33:32.438Z,5.60
2023-01-09T02:36:28.819Z,5.60
2023-01-09T02:39:14.249Z,5.60
2023-01-09T02:41:55.248Z,5.60
2023-01-09T02:44:30.524Z,5.60
2023-01-09T02:47:29.141Z,5.60
2023-01-09T02:50:03.506Z,5.60
2023-01-09T02:52:36.029Z,5.60
2023-01-09T02:55:02.653Z,5.60
2023-01-09T02:57:50.636Z,5.60
2023-01-09T03:00:36.236Z,5.60
2023-01-09T03:03:27.430Z,5.60
2023-01-09T03:06:12.720Z,5.50
2023-01-09T03:08:43.177Z,5.50
2023-01-09T03:11:11.793Z,5.50
2023-01-09T03:13:50.451Z,5.40
2023-01-09T03:16:37.456Z,5.40
2023-01-09T03:19:15.617Z,5.30
2023-01-09T03:21:44.752Z,5.30
2023-01-09T03:24:11.483Z,5.20
2023-01-09T03:26:38.354Z,5.20
2023-01-09T03:29:05.281Z,5.10
2023-01-09T03:31:32.200Z,5.10
2023-01-09T03:33:58.945Z,5.00
2023-01-09T03:36:25.736Z,4.90
2023-01-09T03:38:52.471Z,4.80
2023-01-09T03:41:19.692Z,4.80
2023-01-09T03:43:48.440Z,4.70
2023-01-09T03:46:16.716Z,4.60
2023-01-09T03:48:43.743Z,4.50
2023-01-09T03:51:10.687Z,4.40
2023-01-09T03:53:37.682Z,4.30
2023-01-09T03:56:04.471Z,4.20
2023-01-09T03:58:31.169Z,4.20
2023-01-09T04:01:00.515Z,4.00
2023-01-09T04:03:27.351Z,3.90
2023-01-09T04:05:54.208Z,3.80
2023-01-09T04:08:20.815Z,3.70
2023-01-09T04:10:49.730Z,3.60
2023-01-09T04:13:17.125Z,3.60
2023-01-09T04:15:44.103Z,3.50
2023-01-09T04:18:11.053Z,3.50
2023-01-09T04:20:37.943Z,3.50
2023-01-09T04:23:04.664Z,3.40
2023-01-09T04:25:31.451Z,3.40
2023-01-09T04:27:58.063Z,3.40
2023-01-09T04:30:24.878Z,3.40
2023-01-09T04:32:52.328Z,3.40
2023-01-09T04:35:19.884Z,3.40
2023-01-09T04:37:46.651Z,3.50
2023-01-09T04:40:13.993Z,3.50
2023-01-09T04:42:41.808Z,3.50
2023-01-09T04:45:10.886Z,3.50
2023-01-09T04:47:37.699Z,3.50
2023-01-09T04:50:04.844Z,3.60
2023-01-09T04:52:31.491Z,3.60
2023-01-09T04:54:58.287Z,3.60
2023-01-09T04:57:24.980Z,3.70
2023-01-09T04:59:52.273Z,3.70
2023-01-09T05:02:19.533Z,3.70
2023-01-09T05:04:46.135Z,3.80
2023-01-09T05:07:12.815Z,3.80
2023-01-09T05:09:39.629Z,3.80
2023-01-09T05:12:06.613Z,3.90
2023-01-09T05:14:33.330Z,3.80
2023-01-09T05:16:59.899Z,3.80
2023-01-09T05:19:26.687Z,3.90
2023-01-09T05:21:53.389Z,3.90
2023-01-09T05:24:20.001Z,3.90
2023-01-09T05:26:46.609Z,3.80
2023-01-09T05:29:13.285Z,3.70
2023-01-09T05:31:40.020Z,3.60
2023-01-09T05:34:06.629Z,3.60
2023-01-09T05:36:33.358Z,3.50
2023-01-09T05:39:00.337Z,3.50
2023-01-09T05:41:26.955Z,3.40
2023-01-09T05:43:53.682Z,3.30
2023-01-09T05:46:20.306Z,3.30
2023-01-09T05:48:47.026Z,3.20
2023-01-09T05:51:13.765Z,3.20
2023-01-09T05:53:40.520Z,3.20
2023-01-09T05:56:07.227Z,3.10
2023-01-09T05:58:34.082Z,3.10
2023-01-09T06:01:00.686Z,3.00
2023-01-09T06:03:27.508Z,3.00
2023-01-09T06:05:54.100Z,3.00
2023-01-09T06:08:20.789Z,3.00
2023-01-09T06:10:48.011Z,3.00
2023-01-09T06:13:14.767Z,3.00
2023-01-09T06:15:41.874Z,3.00
2023-01-09T06:18:08.541Z,2.90
2023-01-09T06:20:35.319Z,2.90
2023-01-09T06:23:02.107Z,2.90
2023-01-09T06:25:28.826Z,2.80
2023-01-09T06:27:55.453Z,2.80
2023-01-09T06:30:22.101Z,2.80
2023-01-09T06:32:49.532Z,2.70
2023-01-09T06:35:20.294Z,2.70
2023-01-09T06:37:50.199Z,2.60
2023-01-09T06:40:18.144Z,2.60
2023-01-09T06:42:46.340Z,2.60
2023-01-09T06:45:15.325Z,2.50
2023-01-09T06:47:42.101Z,2.50
2023-01-09T06:50:09.555Z,2.50
2023-01-09T06:52:39.615Z,2.50
2023-01-09T06:55:07.559Z,2.50
2023-01-09T06:57:34.421Z,2.50
2023-01-09T07:00:01.169Z,2.60
2023-01-09T07:02:27.782Z,2.70
2023-01-09T07:04:54.903Z,2.70
2023-01-09T07:07:22.396Z,2.80
2023-01-09T07:09:49.340Z,2.90
2023-01-09T07:12:16.102Z,2.90
2023-01-09T07:14:42.946Z,2.90
2023-01-09T07:17:12.360Z,3.00
2023-01-09T07:19:39.083Z,3.00
2023-01-09T07:22:05.738Z,3.00
2023-01-09T07:24:32.358Z,3.00
2023-01-09T07:26:59.121Z,3.00
2023-01-09T07:29:25.751Z,3.00
2023-01-09T07:31:52.323Z,2.90
2023-01-09T07:34:19.505Z,2.90
2023-01-09T07:36:46.732Z,2.80
2023-01-09T07:39:13.693Z,2.80
2023-01-09T07:41:40.458Z,2.70
2023-01-09T07:44:11.103Z,2.70
2023-01-09T07:46:38.001Z,2.70
2023-01-09T07:49:04.800Z,2.70
2023-01-09T07:51:31.527Z,2.70
2023-01-09T07:53:58.130Z,2.70
2023-01-09T07:56:24.762Z,2.60
2023-01-09T07:58:51.350Z,2.60
2023-01-09T08:01:18.106Z,2.60
2023-01-09T08:03:44.760Z,2.60
2023-01-09T08:06:11.369Z,2.70
2023-01-09T08:08:38.052Z,2.70
2023-01-09T08:11:04.746Z,2.70
2023-01-09T08:13:31.341Z,2.70
2023-01-09T08:15:58.070Z,2.70
2023-01-09T08:18:24.692Z,2.80
2023-01-09T08:20:51.357Z,2.80
2023-01-09T08:23:17.994Z,2.90
2023-01-09T08:25:44.603Z,2.90
2023-01-09T08:28:11.188Z,3.00
2023-01-09T08:30:38.258Z,3.00
2023-01-09T08:33:05.227Z,3.00
2023-01-09T08:35:31.910Z,3.00
2023-01-09T08:37:58.676Z,3.00
2023-01-09T08:40:25.380Z,3.00
2023-01-09T08:43:10.868Z,3.10
2023-01-09T08:45:56.062Z,3.10
2023-01-09T08:48:22.882Z,3.20
2023-01-09T08:50:49.561Z,3.20
2023-01-09T08:53:16.296Z,3.20
2023-01-09T08:55:43.258Z,3.30
2023-01-09T08:58:10.080Z,3.30
2023-01-09T09:00:36.713Z,3.40
2023-01-09T09:03:03.571Z,3.40
2023-01-09T09:05:31.029Z,3.50
2023-01-09T09:07:58.138Z,3.50
2023-01-09T09:10:28.605Z,3.50
2023-01-09T09:12:57.705Z,3.60
2023-01-09T09:15:25.271Z,3.60
2023-01-09T09:17:55.903Z,3.70
2023-01-09T09:20:23.890Z,3.70
2023-01-09T09:22:50.823Z,3.70
2023-01-09T09:25:19.486Z,3.80
2023-01-09T09:27:46.476Z,3.80
2023-01-09T09:30:13.959Z,3.90
2023-01-09T09:32:40.839Z,3.90
2023-01-09T09:35:07.724Z,4.00
2023-01-09T09:37:34.543Z,4.00
2023-01-09T09:40:09.655Z,4.00
2023-01-09T09:43:14.985Z,4.10
2023-01-09T09:45:49.875Z,4.20
2023-01-09T09:48:27.309Z,4.20
2023-01-09T09:50:57.010Z,4.30
2023-01-09T09:53:31.968Z,4.30
2023-01-09T09:55:58.633Z,4.40
2023-01-09T09:58:48.875Z,4.40
2023-01-09T10:01:17.090Z,4.50
2023-01-09T10:03:54.845Z,4.50
2023-01-09T10:06:21.446Z,4.50
2023-01-09T10:09:06.811Z,4.60
2023-01-09T10:11:42.369Z,4.60
2023-01-09T10:14:23.362Z,4.70
2023-01-09T10:16:50.758Z,4.80
2023-01-09T10:19:35.942Z,4.80
2023-01-09T10:22:14.464Z,4.90
2023-01-09T10:24:59.764Z,5.10
2023-01-09T10:27:44.827Z,5.20
2023-01-09T10:30:19.438Z,5.50
2023-01-09T10:32:49.096Z,5.70
2023-01-09T10:35:42.768Z,6.00
2023-01-09T10:38:15.900Z,6.20
2023-01-09T10:40:46.766Z,6.50
2023-01-09T10:43:17.836Z,6.60
2023-01-09T10:45:52.493Z,6.70
2023-01-09T10:48:31.421Z,6.70
2023-01-09T10:50:58.087Z,6.80
2023-01-09T10:53:30.085Z,6.80
2023-01-09T10:56:01.614Z,6.80
2023-01-09T10:58:29.450Z,6.80
2023-01-09T11:00:56.881Z,6.90
2023-01-09T11:03:25.216Z,7.00
2023-01-09T11:05:52.986Z,7.00
2023-01-09T11:08:23.334Z,7.10
2023-01-09T11:10:51.612Z,7.20
2023-01-09T11:13:22.789Z,7.20
2023-01-09T11:16:14.129Z,7.20
2023-01-09T11:18:47.739Z,7.30
2023-01-09T11:21:35.828Z,7.30
2023-01-09T11:24:21.248Z,7.20
2023-01-09T11:26:49.166Z,7.20
2023-01-09T11:29:17.014Z,7.20
2023-01-09T11:31:51.032Z,7.20
2023-01-09T11:34:18.908Z,7.20
2023-01-09T11:36:46.437Z,7.10
2023-01-09T11:39:22.923Z,7.10
2023-01-09T11:41:53.097Z,7.00
2023-01-09T11:44:19.918Z,7.00
2023-01-09T11:46:46.790Z,7.00
2023-01-09T11:49:25.385Z,6.90
2023-01-09T11:52:12.011Z,6.90
2023-01-09T11:54:40.606Z,6.90
2023-01-09T11:57:10.609Z,6.90
2023-01-09T11:59:37.239Z,6.90
2023-01-09T12:02:16.406Z,6.90
2023-01-09T12:04:49.848Z,6.90
2023-01-09T12:07:16.487Z,7.00
2023-01-09T12:09:53.310Z,7.00
2023-01-09T12:12:23.090Z,7.00
2023-01-09T12:14:57.289Z,7.00
2023-01-09T12:17:37.149Z,6.90
2023-01-09T12:20:06.983Z,6.90
2023-01-09T12:22:34.352Z,6.90
2023-01-09T12:25:10.206Z,6.90
2023-01-09T12:27:52.142Z,6.80
2023-01-09T12:30:18.936Z,6.80
2023-01-09T12:32:48.625Z,6.70
2023-01-09T12:35:30.628Z,6.70
2023-01-09T12:38:04.020Z,6.60
2023-01-09T12:40:39.293Z,6.50
2023-01-09T12:43:09.608Z,6.50
2023-01-09T12:45:56.688Z,6.50
2023-01-09T12:48:23.385Z,6.40
2023-01-09T12:50:53.196Z,6.30
2023-01-09T12:53:28.818Z,6.30
2023-01-09T12:55:58.945Z,6.20
2023-01-09T12:58:47.044Z,6.20
2023-01-09T13:01:17.166Z,6.10
2023-01-09T13:03:58.671Z,6.00
2023-01-09T13:06:25.922Z,5.90
2023-01-09T13:08:55.545Z,5.80
2023-01-09T13:11:25.890Z,5.60
2023-01-09T13:13:58.407Z,5.60
2023-01-09T13:16:32.058Z,5.50
2023-01-09T13:19:05.704Z,5.40
2023-01-09T13:21:35.336Z,5.40
2023-01-09T13:24:14.703Z,5.30
2023-01-09T13:26:47.631Z,5.30
2023-01-09T13:29:17.063Z,5.30
2023-01-09T13:32:03.190Z,5.30
2023-01-09T13:34:31.343Z,5.30
2023-01-09T13:36:58.522Z,5.30
2023-01-09T13:39:26.945Z,5.30
2023-01-09T13:42:19.444Z,5.40
2023-01-09T13:44:47.326Z,5.40
2023-01-09T13:47:17.138Z,5.50
2023-01-09T13:49:43.877Z,5.40
2023-01-09T13:52:25.811Z,5.50
2023-01-09T13:54:55.541Z,5.50
2023-01-09T13:57:26.488Z,5.40
2023-01-09T13:59:53.215Z,5.30
2023-01-09T14:02:35.283Z,5.30
2023-01-09T14:05:09.153Z,5.20
2023-01-09T14:07:42.413Z,5.00
2023-01-09T14:10:25.538Z,4.90
2023-01-09T14:12:54.128Z,4.80
2023-01-09T14:15:34.409Z,4.70
2023-01-09T14:18:14.759Z,4.60
2023-01-09T14:20:46.253Z,4.50
2023-01-09T14:23:50.142Z,4.40
2023-01-09T14:26:25.057Z,4.40
2023-01-09T14:28:51.842Z,4.30
2023-01-09T14:31:27.859Z,4.30
2023-01-09T14:34:23.935Z,4.20
2023-01-09T14:36:59.240Z,4.20
2023-01-09T14:39:26.641Z,4.30
2023-01-09T14:42:02.325Z,4.30
2023-01-09T14:44:35.670Z,4.30
2023-01-09T14:47:22.570Z,4.30
2023-01-09T14:49:58.793Z,4.20
2023-01-09T14:52:28.516Z,4.20
2023-01-09T14:54:59.990Z,4.20
2023-01-09T14:57:30.726Z,4.10
2023-01-09T15:00:00.569Z,4.00
2023-01-09T15:02:29.891Z,4.00
2023-01-09T15:04:58.488Z,3.90
2023-01-09T15:07:34.111Z,3.90
2023-01-09T15:10:02.571Z,3.80
2023-01-09T15:12:29.535Z,3.80
2023-01-09T15:14:57.942Z,3.70
2023-01-09T15:17:26.221Z,3.80
2023-01-09T15:19:53.615Z,3.80
2023-01-09T15:22:27.513Z,3.90
2023-01-09T15:24:54.666Z,3.90
2023-01-09T15:27:24.394Z,3.90
2023-01-09T15:29:51.852Z,3.90
2023-01-09T15:32:26.153Z,3.90
2023-01-09T15:34:55.099Z,3.80
2023-01-09T15:37:27.031Z,3.80
2023-01-09T15:39:53.937Z,3.90
2023-01-09T15:42:41.578Z,3.90
2023-01-09T15:45:21.912Z,3.90
2023-01-09T15:47:48.589Z,3.90
2023-01-09T15:50:16.372Z,3.90
2023-01-09T15:52:43.558Z,4.00
2023-01-09T15:55:24.480Z,4.00
2023-01-09T15:57:52.961Z,4.00
2023-01-09T16:00:41.490Z,4.00
2023-01-09T16:03:15.747Z,4.10
2023-01-09T16:05:43.729Z,4.10
2023-01-09T16:08:30.065Z,4.10
2023-01-09T16:11:02.188Z,4.00
2023-01-09T16:13:29.897Z,4.00
2023-01-09T16:15:57.860Z,4.00
2023-01-09T16:18:32.499Z,4.00
2023-01-09T16:21:03.499Z,4.00
2023-01-09T16:23:34.557Z,4.00
2023-01-09T16:26:11.640Z,4.10
2023-01-09T16:28:40.871Z,4.20
2023-01-09T16:31:18.506Z,4.20
2023-01-09T16:33:46.678Z,4.20
2023-01-09T16:36:13.856Z,4.20
2023-01-09T16:38:43.358Z,4.20
2023-01-09T16:41:55.226Z,4.20
2023-01-09T16:44:21.886Z,4.20
2023-01-09T16:46:48.527Z,4.20
2023-01-09T16:49:19.970Z,4.10
2023-01-09T16:51:46.850Z,4.10
2023-01-09T16:54:13.612Z,4.10
2023-01-09T16:56:41.575Z,4.10
2023-01-09T16:59:14.834Z,4.00
2023-01-09T17:01:41.547Z,3.90
2023-01-09T17:04:12.108Z,3.70
2023-01-09T17:06:39.161Z,3.60
2023-01-09T17:09:05.841Z,3.50
2023-01-09T17:11:32.582Z,3.40
2023-01-09T17:13:59.912Z,3.30
2023-01-09T17:16:27.971Z,3.20
2023-01-09T17:18:54.933Z,3.20
2023-01-09T17:21:22.792Z,3.20
2023-01-09T17:24:12.878Z,3.10
2023-01-09T17:26:59.586Z,3.10
2023-01-09T17:29:26.325Z,3.10
2023-01-09T17:31:52.971Z,3.10
2023-01-09T17:34:19.641Z,3.10
2023-01-09T17:36:46.418Z,3.10
2023-01-09T17:39:13.786Z,3.20
2023-01-09T17:41:40.358Z,3.20
2023-01-09T17:44:06.997Z,3.20
2023-01-09T17:46:34.943Z,3.10
2023-01-09T17:49:02.147Z,3.10
2023-01-09T17:51:29.343Z,3.10
2023-01-09T17:53:56.184Z,3.10
2023-01-09T17:56:25.336Z,3.10
2023-01-09T17:58:52.398Z,3.00
2023-01-09T18:01:19.711Z,3.00
2023-01-09T18:03:48.784Z,3.00
2023-01-09T18:06:16.590Z,3.00
2023-01-09T18:08:43.241Z,3.00
2023-01-09T18:11:14.657Z,3.00
2023-01-09T18:13:41.302Z,3.10
2023-01-09T18:16:12.466Z,3.10
2023-01-09T18:18:40.126Z,3.10
2023-01-09T18:21:07.780Z,3.10
2023-01-09T18:23:35.162Z,3.10
2023-01-09T18:26:05.872Z,3.10
2023-01-09T18:28:35.387Z,3.10
2023-01-09T18:31:02.085Z,3.10
2023-01-09T18:33:28.767Z,3.10
2023-01-09T18:35:55.755Z,3.10
2023-01-09T18:38:22.297Z,3.10
2023-01-09T18:40:49.707Z,3.10
2023-01-09T18:43:16.458Z,3.00
2023-01-09T18:45:43.122Z,3.00
2023-01-09T18:48:10.012Z,2.90
2023-01-09T18:50:36.600Z,2.80
2023-01-09T18:53:03.245Z,2.80
2023-01-09T18:55:29.923Z,2.70
2023-01-09T18:57:56.629Z,2.70
2023-01-09T19:00:23.241Z,2.60
2023-01-09T19:02:49.856Z,2.60
2023-01-09T19:05:16.773Z,2.60
2023-01-09T19:07:43.378Z,2.60
2023-01-09T19:10:10.528Z,2.70
2023-01-09T19:12:37.152Z,2.70
2023-01-09T19:15:07.305Z,2.70
2023-01-09T19:17:34.071Z,2.70
2023-01-09T19:20:00.646Z,2.70
2023-01-09T19:22:27.833Z,2.70
2023-01-09T19:24:54.571Z,2.70
2023-01-09T19:27:21.188Z,2.80
2023-01-09T19:29:47.757Z,2.80
2023-01-09T19:32:14.465Z,2.80
2023-01-09T19:34:41.053Z,2.80
2023-01-09T19:37:09.512Z,2.80
2023-01-09T19:39:37.570Z,2.80
2023-01-09T19:42:04.303Z,2.90
2023-01-09T19:44:32.465Z,2.90
2023-01-09T19:46:59.154Z,2.90
2023-01-09T19:49:25.732Z,2.90
2023-01-09T19:51:55.010Z,2.90
2023-01-09T19:54:21.859Z,2.90
2023-01-09T19:56:48.685Z,2.80
2023-01-09T19:59:15.861Z,2.90
2023-01-09T20:01:42.706Z,2.90
2023-01-09T20:04:13.792Z,2.80
2023-01-09T20:06:45.219Z,2.80
2023-01-09T20:09:13.056Z,2.80
2023-01-09T20:11:41.080Z,2.80
2023-01-09T20:14:10.561Z,2.80
2023-01-09T20:16:37.256Z,2.80
2023-01-09T20:19:06.325Z,2.80
2023-01-09T20:21:33.406Z,2.80
2023-01-09T20:24:00.880Z,2.80
2023-01-09T20:26:28.387Z,2.80
2023-01-09T20:30:54.536Z,2.80
2023-01-09T20:33:21.958Z,2.80
2023-01-09T20:35:48.709Z,2.70
2023-01-09T20:38:15.360Z,2.80
2023-01-09T20:40:44.819Z,2.80
2023-01-09T20:43:12.680Z,2.80
2023-01-09T20:45:40.821Z,2.70
2023-01-09T20:48:10.836Z,2.70
2023-01-09T20:50:38.294Z,2.70
2023-01-09T20:53:07.726Z,2.70
2023-01-09T20:55:34.836Z,2.70
2023-01-09T20:58:01.795Z,2.70
2023-01-09T21:00:31.912Z,2.70
2023-01-09T21:02:59.308Z,2.70
2023-01-09T21:05:26.264Z,2.80
2023-01-09T21:07:53.210Z,2.80
2023-01-09T21:10:19.973Z,2.80
2023-01-09T21:12:46.640Z,2.80
2023-01-09T21:15:17.685Z,2.80
2023-01-09T21:17:44.560Z,2.80
2023-01-09T21:20:15.259Z,2.80
2023-01-09T21:22:42.237Z,2.80
2023-01-09T21:25:10.369Z,2.80
2023-01-09T21:27:43.236Z,2.80
2023-01-09T21:30:11.026Z,2.80
2023-01-09T21:32:38.244Z,2.80
2023-01-09T21:35:06.902Z,2.80
2023-01-09T21:37:35.973Z,2.80
2023-01-09T21:40:05.585Z,2.80
2023-01-09T21:42:50.892Z,2.80
2023-01-09T21:45:36.969Z,2.80
2023-01-09T21:48:07.272Z,2.80
2023-01-09T21:50:35.462Z,2.80
2023-01-09T21:53:02.630Z,2.80
2023-01-09T21:55:32.051Z,2.80
2023-01-09T21:58:01.063Z,2.80
2023-01-09T22:00:28.894Z,2.80
2023-01-09T22:02:55.775Z,2.80
2023-01-09T22:05:24.529Z,2.90
2023-01-09T22:07:51.882Z,2.80
2023-01-09T22:10:19.222Z,2.80
2023-01-09T22:13:09.236Z,2.80
2023-01-09T22:15:36.062Z,2.90
2023-01-09T22:18:02.664Z,2.80
2023-01-09T22:20:29.404Z,2.90
2023-01-09T22:22:56.094Z,2.80
2023-01-09T22:25:22.948Z,2.80
2023-01-09T22:27:49.903Z,2.70
2023-01-09T22:30:16.879Z,2.70
2023-01-09T22:32:43.745Z,2.70
2023-01-09T22:35:10.590Z,2.80
2023-01-09T22:37:37.307Z,2.80
2023-01-09T22:40:04.729Z,2.70
2023-01-09T22:42:31.554Z,2.70
2023-01-09T22:44:58.516Z,2.70
2023-01-09T22:47:25.933Z,2.70
2023-01-09T22:49:53.661Z,2.70
2023-01-09T22:52:21.732Z,2.70
2023-01-09T22:54:48.576Z,2.70
2023-01-09T22:57:15.342Z,2.70
2023-01-09T22:59:42.011Z,2.70
2023-01-09T23:02:09.115Z,2.70
2023-01-09T23:04:35.914Z,2.70
2023-01-09T23:07:02.554Z,2.70
2023-01-09T23:09:29.442Z,2.70
2023-01-09T23:12:02.031Z,2.60
2023-01-09T23:14:30.460Z,2.60
2023-01-09T23:16:57.337Z,2.60
2023-01-09T23:19:24.663Z,2.60
2023-01-09T23:21:51.701Z,2.60
2023-01-09T23:24:18.984Z,2.60
2023-01-09T23:26:46.452Z,2.60
2023-01-09T23:29:14.030Z,2.60
2023-01-09T23:31:40.784Z,2.60
2023-01-09T23:34:08.258Z,2.50
2023-01-09T23:36:35.728Z,2.50
2023-01-09T23:39:04.079Z,2.60
2023-01-09T23:41:49.356Z,2.60
2023-01-09T23:44:16.185Z,2.60
2023-01-09T23:46:42.762Z,2.60
2023-01-09T23:49:10.254Z,2.60
2023-01-09T23:51:37.024Z,2.60
2023-01-09T23:54:04.319Z,2.60
2023-01-09T23:56:33.711Z,2.60
2023-01-09T23:59:02.049Z,2.60
